Time;durP1;ratioP1;P1;durP2;ratioP2;P2;SDS_P1;SDS_P2;PMS_P1;PMS_P2;Temp;Humidity;BMP_temperature;BMP_pressure;BME280_temperature;BME280_humidity;BME280_pressure;Samples;Min_cycle;Max_cycle;Signal;HPM_P1;HPM_P2
2021/01/22 00:00:51;;;;;;;1.48;1.05;;;13.10;81.30;;;;;;2097328;28;20049;-72
2021/01/22 00:01:53;;;;;;;3.15;1.13;;;13.20;81.30;;;;;;2097305;28;20492;-72
2021/01/22 00:02:55;;;;;;;1.70;1.00;;;12.80;83.40;;;;;;2097277;28;20094;-72
2021/01/22 00:03:56;;;;;;;;;;;12.70;81.90;;;;;;2097274;28;20091;-73
2021/01/22 00:04:58;;;;;;;2.00;1.40;;;12.80;82.40;;;;;;2096745;28;19926;-73
2021/01/22 00:06:00;;;;;;;2.67;0.80;;;13.00;84.10;;;;;;2097441;28;20041;-73
2021/01/22 00:07:02;;;;;;;1.60;1.10;;;12.90;82.80;;;;;;2097115;28;20053;-72
2021/01/22 00:08:04;;;;;;;2.20;1.38;;;12.90;82.30;;;;;;2096780;28;20306;-72
2021/01/22 00:09:06;;;;;;;4.30;1.48;;;12.90;81.30;;;;;;2096721;28;20044;-73
2021/01/22 00:10:09;;;;;;;2.55;0.75;;;13.00;82.50;;;;;;2097373;28;20052;-72
2021/01/22 00:11:11;;;;;;;3.42;1.42;;;13.30;85.40;;;;;;2097277;28;20060;-73
2021/01/22 00:12:13;;;;;;;3.00;1.10;;;13.80;84.60;;;;;;2097184;28;20049;-73
2021/01/22 00:13:15;;;;;;;2.72;1.15;;;13.80;82.60;;;;;;2096641;28;20060;-72
2021/01/22 00:14:17;;;;;;;2.05;1.10;;;13.70;80.40;;;;;;2096761;28;20070;-72
2021/01/22 00:15:18;;;;;;;2.97;1.10;;;13.90;80.20;;;;;;2097404;28;20048;-72
2021/01/22 00:16:20;;;;;;;4.03;1.10;;;14.10;81.00;;;;;;2097470;28;20045;-71
2021/01/22 00:17:22;;;;;;;1.48;0.93;;;14.40;79.50;;;;;;2097365;28;20044;-72
2021/01/22 00:18:23;;;;;;;1.77;0.90;;;14.30;79.60;;;;;;2097368;28;20124;-72
2021/01/22 00:19:25;;;;;;;4.18;0.98;;;14.70;79.70;;;;;;2097301;28;20072;-72
2021/01/22 00:20:27;;;;;;;1.23;0.90;;;14.90;79.40;;;;;;2098125;28;20067;-73
2021/01/22 00:21:29;;;;;;;1.50;0.80;;;14.90;75.60;;;;;;2097350;28;20075;-72
2021/01/22 00:22:31;;;;;;;2.70;0.90;;;14.70;76.90;;;;;;2097280;28;20056;-73
2021/01/22 00:23:37;;;;;;;2.97;1.00;;;14.60;75.80;;;;;;2097376;28;20314;-72
2021/01/22 00:24:39;;;;;;;1.85;0.70;;;14.90;76.90;;;;;;2097196;28;20056;-72
2021/01/22 00:25:40;;;;;;;1.80;1.02;;;15.00;77.50;;;;;;2097130;28;20437;-72
2021/01/22 00:26:42;;;;;;;1.10;0.65;;;15.20;75.90;;;;;;2097160;28;20456;-72
2021/01/22 00:27:44;;;;;;;3.15;0.85;;;14.40;73.40;;;;;;2097197;28;20504;-72
2021/01/22 00:28:46;;;;;;;2.92;0.90;;;14.50;77.20;;;;;;2097265;28;20059;-72
2021/01/22 00:29:48;;;;;;;0.95;0.60;;;14.40;75.20;;;;;;2097248;28;20045;-73
2021/01/22 00:30:49;;;;;;;1.38;0.70;;;14.10;75.80;;;;;;2097327;28;20045;-73
2021/01/22 00:31:51;;;;;;;1.55;0.70;;;14.30;76.70;;;;;;2097482;28;20048;-72
2021/01/22 00:32:53;;;;;;;;;;;14.30;78.60;;;;;;2098202;28;20087;-73
2021/01/22 00:33:55;;;;;;;2.80;0.70;;;14.20;75.30;;;;;;2097870;28;19920;-72
2021/01/22 00:34:56;;;;;;;2.13;0.70;;;14.10;78.80;;;;;;2098323;28;20452;-73
2021/01/22 00:35:58;;;;;;;3.45;0.60;;;14.40;76.50;;;;;;2099216;28;20052;-73
2021/01/22 00:36:59;;;;;;;1.30;0.63;;;14.30;76.30;;;;;;2100208;28;20481;-72
2021/01/22 00:38:03;;;;;;;3.35;0.80;;;14.50;75.50;;;;;;2099942;28;20049;-72
2021/01/22 00:39:05;;;;;;;2.58;0.70;;;14.20;74.30;;;;;;2100257;28;20059;-73
2021/01/22 00:40:08;;;;;;;2.92;0.73;;;14.20;77.40;;;;;;2100153;28;20064;-72
2021/01/22 00:41:10;;;;;;;2.45;0.70;;;14.30;76.70;;;;;;2100169;28;20072;-73
2021/01/22 00:42:12;;;;;;;1.02;0.57;;;13.90;74.80;;;;;;2108606;28;20112;-73
2021/01/22 00:43:15;;;;;;;0.70;0.45;;;14.10;77.60;;;;;;2107509;28;20508;-73
2021/01/22 00:44:16;;;;;;;1.23;0.60;;;13.80;76.70;;;;;;2099324;28;20059;-73
2021/01/22 00:45:18;;;;;;;1.65;0.63;;;13.80;78.20;;;;;;2100274;28;20068;-74
2021/01/22 00:46:20;;;;;;;2.55;0.60;;;14.00;78.50;;;;;;2098869;28;20481;-73
2021/01/22 00:47:21;;;;;;;0.70;0.30;;;13.60;74.20;;;;;;2098701;28;20109;-73
2021/01/22 00:48:23;;;;;;;1.48;0.80;;;14.00;78.00;;;;;;2098784;28;20408;-72
2021/01/22 00:49:25;;;;;;;0.95;0.45;;;13.80;73.50;;;;;;2098948;28;20207;-73
2021/01/22 00:50:27;;;;;;;1.35;0.40;;;14.10;79.20;;;;;;2098781;28;20049;-77
2021/01/22 00:51:29;;;;;;;1.58;0.75;;;14.60;77.50;;;;;;2098596;28;20059;-72
2021/01/22 00:52:30;;;;;;;;;;;14.60;77.50;;;;;;2098231;28;20045;-73
2021/01/22 00:53:32;;;;;;;2.35;0.60;;;14.60;75.80;;;;;;2097703;28;19935;-73
2021/01/22 00:54:33;;;;;;;3.42;0.43;;;14.80;75.50;;;;;;2097386;28;20044;-73
2021/01/22 00:55:35;;;;;;;3.35;0.50;;;14.90;74.60;;;;;;2097231;28;20049;-73
2021/01/22 00:56:37;;;;;;;1.08;0.70;;;14.70;71.40;;;;;;2096993;28;20045;-72
2021/01/22 00:57:38;;;;;;;2.20;0.60;;;15.00;76.20;;;;;;2097225;28;20044;-73
2021/01/22 00:58:41;;;;;;;1.23;0.43;;;15.00;73.80;;;;;;2097274;28;20079;-72
2021/01/22 00:59:42;;;;;;;1.50;0.60;;;15.20;73.80;;;;;;2096969;28;20052;-73
2021/01/22 01:00:44;;;;;;;0.50;0.30;;;14.90;70.30;;;;;;2097071;28;20055;-73
2021/01/22 01:01:46;;;;;;;0.85;0.50;;;14.90;75.70;;;;;;2096831;28;20053;-73
2021/01/22 01:02:48;;;;;;;1.58;0.50;;;15.10;71.20;;;;;;2097338;28;20590;-73
2021/01/22 01:03:49;;;;;;;2.13;0.60;;;15.10;73.80;;;;;;2098035;28;20409;-72
2021/01/22 01:04:51;;;;;;;1.05;0.40;;;15.20;73.00;;;;;;2098746;28;20048;-73
2021/01/22 01:05:53;;;;;;;0.75;0.40;;;15.30;73.00;;;;;;2098822;28;20060;-72
2021/01/22 01:06:54;;;;;;;0.73;0.50;;;15.30;73.40;;;;;;2098652;28;20420;-72
2021/01/22 01:07:56;;;;;;;2.42;0.40;;;15.50;72.50;;;;;;2098524;28;20061;-72
2021/01/22 01:08:58;;;;;;;1.23;0.50;;;15.50;70.40;;;;;;2098674;28;20048;-72
2021/01/22 01:10:00;;;;;;;1.42;0.30;;;15.30;72.10;;;;;;2098619;28;20044;-72
2021/01/22 01:11:03;;;;;;;0.50;0.40;;;15.50;71.50;;;;;;2098711;28;20481;-73
2021/01/22 01:12:05;;;;;;;2.15;0.60;;;15.70;72.50;;;;;;2098518;28;20048;-72
2021/01/22 01:13:07;;;;;;;0.47;0.38;;;15.70;68.90;;;;;;2098617;28;20045;-73
2021/01/22 01:14:10;;;;;;;0.88;0.45;;;15.70;69.50;;;;;;2098488;28;20052;-72
2021/01/22 01:15:13;;;;;;;1.50;0.60;;;15.30;68.70;;;;;;2098684;28;20049;-73
2021/01/22 01:16:15;;;;;;;1.23;0.45;;;15.40;70.50;;;;;;2098318;28;20075;-73
2021/01/22 01:17:16;;;;;;;0.40;0.40;;;15.50;70.70;;;;;;2098641;28;20045;-73
2021/01/22 01:18:18;;;;;;;0.88;0.50;;;15.40;70.90;;;;;;2098740;28;20045;-72
2021/01/22 01:19:26;;;;;;;0.57;0.40;;;15.70;70.40;;;;;;2098713;28;20055;-72
2021/01/22 01:20:28;;;;;;;0.55;0.35;;;15.80;69.10;;;;;;2098632;28;20050;-72
2021/01/22 01:21:30;;;;;;;0.88;0.50;;;15.70;68.30;;;;;;2098482;28;20049;-73
2021/01/22 01:22:31;;;;;;;1.08;0.50;;;15.70;67.50;;;;;;2098597;28;20037;-73
2021/01/22 01:23:33;;;;;;;0.68;0.40;;;15.40;68.60;;;;;;2098782;28;20057;-72
2021/01/22 01:24:35;;;;;;;0.52;0.40;;;15.70;69.90;;;;;;2098626;28;20048;-72
2021/01/22 01:25:36;;;;;;;0.60;0.40;;;15.60;67.40;;;;;;2098034;28;20044;-73
2021/01/22 01:26:38;;;;;;;0.40;0.40;;;15.70;69.90;;;;;;2097853;28;20329;-72
2021/01/22 01:27:39;;;;;;;1.83;0.50;;;15.80;67.80;;;;;;2098570;28;20044;-72
2021/01/22 01:28:41;;;;;;;0.63;0.40;;;15.80;67.50;;;;;;2098427;28;20405;-72
2021/01/22 01:29:43;;;;;;;3.20;0.65;;;15.90;68.60;;;;;;2098456;28;20063;-73
2021/01/22 01:30:45;;;;;;;0.93;0.40;;;15.80;68.10;;;;;;2098324;28;20048;-73
2021/01/22 01:31:47;;;;;;;1.05;0.52;;;16.10;68.30;;;;;;2098271;28;20059;-72
2021/01/22 01:32:49;;;;;;;;;;;16.30;67.80;;;;;;2098986;28;20048;-72
2021/01/22 01:33:50;;;;;;;1.67;0.30;;;16.50;67.30;;;;;;2099812;28;19943;-72
2021/01/22 01:34:52;;;;;;;1.17;0.50;;;16.50;66.30;;;;;;2099856;28;20056;-73
2021/01/22 01:35:54;;;;;;;0.52;0.50;;;16.50;66.40;;;;;;2099994;28;20049;-73
2021/01/22 01:36:55;;;;;;;0.57;0.40;;;16.70;65.80;;;;;;2099734;28;20517;-73
2021/01/22 01:37:58;;;;;;;2.40;0.65;;;16.70;66.00;;;;;;2099905;28;20051;-73
2021/01/22 01:39:00;;;;;;;1.13;0.47;;;16.80;64.80;;;;;;2099736;28;20437;-73
2021/01/22 01:40:03;;;;;;;1.02;0.40;;;16.60;66.00;;;;;;2099724;28;20048;-73
2021/01/22 01:41:05;;;;;;;1.88;0.43;;;16.50;65.30;;;;;;2099714;28;20527;-72
2021/01/22 01:42:07;;;;;;;1.10;0.50;;;16.60;65.80;;;;;;2099898;28;20044;-73
2021/01/22 01:43:09;;;;;;;1.20;0.38;;;16.60;63.80;;;;;;2098976;28;20052;-73
2021/01/22 01:44:10;;;;;;;1.77;0.47;;;16.70;65.60;;;;;;2098869;28;20048;-72
2021/01/22 01:45:15;;;;;;;;;;;16.90;65.50;;;;;;2099700;28;20040;-73
2021/01/22 01:46:17;;;;;;;1.27;0.65;;;17.00;64.90;;;;;;2100397;28;19920;-74
2021/01/22 01:47:19;;;;;;;0.38;0.30;;;16.90;63.80;;;;;;2099346;28;20045;-73
2021/01/22 01:48:21;;;;;;;0.30;0.28;;;16.90;64.00;;;;;;2098506;28;20118;-73
2021/01/22 01:49:23;;;;;;;1.20;0.55;;;16.90;65.00;;;;;;2098487;28;20174;-72
2021/01/22 01:50:25;;;;;;;0.93;0.55;;;16.60;64.40;;;;;;2098402;28;20123;-73
2021/01/22 01:51:27;;;;;;;0.75;0.43;;;16.50;64.30;;;;;;2098214;28;20637;-72
2021/01/22 01:52:29;;;;;;;;;;;16.70;65.80;;;;;;2098743;28;20501;-72
2021/01/22 01:53:31;;;;;;;0.85;0.40;;;17.00;65.40;;;;;;2098233;28;19920;-72
2021/01/22 01:54:33;;;;;;;0.60;0.47;;;17.00;64.70;;;;;;2098262;28;20059;-72
2021/01/22 01:55:35;;;;;;;0.65;0.35;;;17.10;64.80;;;;;;2098273;28;20511;-72
2021/01/22 01:56:37;;;;;;;0.45;0.40;;;17.10;64.40;;;;;;2097548;28;20049;-72
2021/01/22 01:57:39;;;;;;;0.75;0.40;;;17.10;64.30;;;;;;2097674;28;20049;-72
2021/01/22 01:58:41;;;;;;;;;;;17.20;64.00;;;;;;2099017;28;20045;-72
2021/01/22 01:59:43;;;;;;;1.92;0.30;;;17.30;63.60;;;;;;2098546;28;19963;-72
2021/01/22 02:00:45;;;;;;;;;;;17.40;63.30;;;;;;2097914;28;20052;-73
2021/01/22 02:01:48;;;;;;;2.75;0.57;;;17.30;63.30;;;;;;2089699;28;19925;-73
2021/01/22 02:02:49;;;;;;;0.80;0.40;;;17.10;63.00;;;;;;2097784;28;20525;-72
2021/01/22 02:03:51;;;;;;;1.35;0.70;;;17.20;63.90;;;;;;2098327;28;20078;-72
2021/01/22 02:04:53;;;;;;;0.73;0.43;;;17.30;63.80;;;;;;2098293;28;20313;-73
2021/01/22 02:05:55;;;;;;;4.78;0.55;;;17.10;62.40;;;;;;2097600;28;20460;-72
2021/01/22 02:06:57;;;;;;;0.57;0.50;;;16.90;63.90;;;;;;2097676;28;20044;-73
2021/01/22 02:07:59;;;;;;;0.60;0.60;;;17.10;63.80;;;;;;2098216;28;20051;-72
2021/01/22 02:09:02;;;;;;;0.98;0.60;;;17.10;63.70;;;;;;2098267;28;20055;-72
2021/01/22 02:10:05;;;;;;;1.85;0.68;;;17.10;63.40;;;;;;2098276;28;20045;-73
2021/01/22 02:11:09;;;;;;;0.88;0.60;;;17.00;63.80;;;;;;2098171;28;20048;-73
2021/01/22 02:12:11;;;;;;;1.00;0.43;;;17.20;63.80;;;;;;2098245;28;20045;-73
2021/01/22 02:13:13;;;;;;;;;;;17.30;63.60;;;;;;2098588;28;20496;-72
2021/01/22 02:14:15;;;;;;;0.77;0.33;;;17.40;63.40;;;;;;2097104;28;19927;-72
2021/01/22 02:15:18;;;;;;;0.75;0.50;;;17.40;63.20;;;;;;2098092;28;20285;-74
2021/01/22 02:16:22;;;;;;;0.43;0.40;;;17.40;62.90;;;;;;2098120;28;20385;-72
2021/01/22 02:17:24;;;;;;;0.60;0.40;;;17.10;63.30;;;;;;2098283;28;20080;-72
2021/01/22 02:18:27;;;;;;;1.42;0.75;;;17.20;63.50;;;;;;2098171;28;20377;-73
2021/01/22 02:19:42;;;;;;;0.52;0.50;;;17.20;63.50;;;;;;2098198;28;20044;-71
2021/01/22 02:20:58;;;;;;;0.80;0.45;;;17.20;63.40;;;;;;2098048;28;20511;-73
2021/01/22 02:22:00;;;;;;;0.93;0.60;;;17.30;63.30;;;;;;2098260;28;20059;-72
2021/01/22 02:23:02;;;;;;;;;;;17.40;63.20;;;;;;2098545;28;20172;-73
2021/01/22 02:24:08;;;;;;;1.35;0.52;;;17.40;62.10;;;;;;2098389;28;19927;-73
2021/01/22 02:25:12;;;;;;;0.77;0.70;;;17.20;62.60;;;;;;2097947;28;20516;-73
2021/01/22 02:26:43;;;;;;;0.57;0.50;;;17.10;63.10;;;;;;2098040;28;20052;-73
2021/01/22 02:27:45;;;;;;;1.13;1.00;;;17.10;63.00;;;;;;2098103;28;20056;-72
2021/01/22 02:28:51;;;;;;;1.33;1.17;;;16.80;62.50;;;;;;2097524;28;20053;-72
2021/01/22 02:29:53;;;;;;;0.55;0.55;;;16.70;63.80;;;;;;2098410;28;20056;-72
2021/01/22 02:30:55;;;;;;;2.10;1.30;;;16.90;64.60;;;;;;2099716;28;20078;-72
2021/01/22 02:32:00;;;;;;;;;;;16.40;63.20;;;;;;2100696;28;20048;-72
2021/01/22 02:33:05;;;;;;;1.60;1.02;;;16.70;64.90;;;;;;2101025;28;20258;-73
2021/01/22 02:34:10;;;;;;;1.42;1.17;;;16.60;64.50;;;;;;2101300;28;20436;-72
2021/01/22 02:35:13;;;;;;;0.88;0.70;;;16.80;64.40;;;;;;2101197;28;20068;-72
2021/01/22 02:36:19;;;;;;;0.50;0.50;;;17.00;64.50;;;;;;2101229;28;20051;-73
2021/01/22 02:37:22;;;;;;;1.50;0.95;;;17.20;64.00;;;;;;2101143;28;20049;-72
2021/01/22 02:38:24;;;;;;;1.55;0.98;;;17.20;63.00;;;;;;2101090;28;20473;-73
2021/01/22 02:39:32;;;;;;;0.93;0.60;;;16.90;60.00;;;;;;2100705;28;20057;-72
2021/01/22 02:40:35;;;;;;;0.82;0.80;;;16.90;63.90;;;;;;2100298;28;20040;-73
2021/01/22 02:41:40;;;;;;;0.95;0.73;;;17.00;63.50;;;;;;2098945;28;20158;-73
2021/01/22 02:42:46;;;;;;;1.75;0.80;;;17.10;62.90;;;;;;2097875;28;20461;-72
2021/01/22 02:43:50;;;;;;;0.88;0.63;;;17.00;63.40;;;;;;2097899;28;20055;-73
2021/01/22 02:44:54;;;;;;;1.20;1.10;;;17.00;62.70;;;;;;2097963;28;20055;-73
2021/01/22 02:45:57;;;;;;;2.05;0.80;;;16.90;62.40;;;;;;2097806;28;20044;-73
2021/01/22 02:47:00;;;;;;;0.68;0.50;;;16.80;62.80;;;;;;2097762;28;20048;-72
2021/01/22 02:48:03;;;;;;;1.10;0.70;;;16.80;64.30;;;;;;2097869;28;20048;-72
2021/01/22 02:49:05;;;;;;;1.88;1.27;;;16.80;63.80;;;;;;2097779;28;20049;-72
2021/01/22 02:50:07;;;;;;;0.75;0.60;;;16.50;63.30;;;;;;2097780;28;20048;-73
2021/01/22 02:51:10;;;;;;;0.73;0.57;;;16.90;64.30;;;;;;2097718;28;20517;-72
2021/01/22 02:52:12;;;;;;;1.40;1.08;;;17.00;63.60;;;;;;2097732;28;20052;-72
2021/01/22 02:53:14;;;;;;;1.50;0.65;;;16.80;62.20;;;;;;2097796;28;20048;-73
2021/01/22 02:54:16;;;;;;;0.43;0.40;;;17.00;63.80;;;;;;2097751;28;20516;-72
2021/01/22 02:55:18;;;;;;;0.63;0.40;;;17.10;63.50;;;;;;2097816;28;20045;-72
2021/01/22 02:56:28;;;;;;;1.42;1.33;;;17.20;63.20;;;;;;2097560;28;20429;-72
2021/01/22 02:57:37;;;;;;;0.70;0.50;;;16.90;61.70;;;;;;2097847;28;20044;-73
2021/01/22 02:58:46;;;;;;;2.35;0.75;;;16.70;63.00;;;;;;2097734;28;20564;-72
2021/01/22 02:59:55;;;;;;;0.60;0.60;;;16.90;63.40;;;;;;2097700;28;20040;-73
2021/01/22 03:01:05;;;;;;;0.80;0.50;;;16.90;63.40;;;;;;2097686;28;20094;-73
2021/01/22 03:02:15;;;;;;;1.13;0.50;;;17.10;63.60;;;;;;2097570;28;20397;-72
2021/01/22 03:03:30;;;;;;;0.60;0.60;;;17.10;62.90;;;;;;2097748;28;20047;-73
2021/01/22 03:04:32;;;;;;;0.98;0.60;;;17.30;63.00;;;;;;2097525;28;20532;-72
2021/01/22 03:05:37;;;;;;;0.73;0.70;;;17.20;62.40;;;;;;2097910;28;20072;-72
2021/01/22 03:06:41;;;;;;;0.95;0.70;;;17.20;62.20;;;;;;2097711;28;20109;-73
2021/01/22 03:07:47;;;;;;;1.00;0.50;;;16.70;62.50;;;;;;2097659;28;20086;-72
2021/01/22 03:08:54;;;;;;;0.40;0.32;;;16.60;63.80;;;;;;2097741;28;20203;-73
2021/01/22 03:10:00;;;;;;;0.35;0.32;;;16.60;64.00;;;;;;2097775;28;20060;-72
2021/01/22 03:11:06;;;;;;;2.67;0.65;;;16.90;64.00;;;;;;2097689;28;20397;-73
2021/01/22 03:12:09;;;;;;;1.33;0.50;;;17.00;62.30;;;;;;2097568;28;20061;-72
2021/01/22 03:13:11;;;;;;;1.90;0.60;;;17.00;62.80;;;;;;2097743;28;20044;-73
2021/01/22 03:14:16;;;;;;;1.38;0.60;;;17.10;62.20;;;;;;2097915;28;20048;-72
2021/01/22 03:15:19;;;;;;;0.82;0.45;;;16.80;61.40;;;;;;2096895;28;20386;-72
2021/01/22 03:16:21;;;;;;;0.73;0.40;;;16.70;63.30;;;;;;2096986;28;20045;-72
2021/01/22 03:17:23;;;;;;;0.80;0.60;;;16.90;63.30;;;;;;2097823;28;20052;-72
2021/01/22 03:18:25;;;;;;;1.42;0.50;;;17.10;62.40;;;;;;2097658;28;20107;-72
2021/01/22 03:19:27;;;;;;;0.47;0.30;;;17.10;62.90;;;;;;2097727;28;20056;-72
2021/01/22 03:20:29;;;;;;;0.50;0.40;;;17.30;62.60;;;;;;2097593;28;20041;-72
2021/01/22 03:21:31;;;;;;;0.70;0.47;;;17.30;62.20;;;;;;2097490;28;20044;-72
2021/01/22 03:22:32;;;;;;;;;;;17.40;61.80;;;;;;2098104;28;20048;-73
2021/01/22 03:23:34;;;;;;;0.88;0.50;;;17.30;59.20;;;;;;2097580;28;19927;-72
2021/01/22 03:24:36;;;;;;;3.47;0.80;;;17.20;60.70;;;;;;2097620;28;20075;-73
2021/01/22 03:25:38;;;;;;;2.85;0.98;;;16.40;53.20;;;;;;2097526;28;20044;-72
2021/01/22 03:26:40;;;;;;;0.77;0.43;;;15.70;50.50;;;;;;2097739;28;20120;-73
2021/01/22 03:27:41;;;;;;;1.70;0.55;;;16.00;62.90;;;;;;2097652;28;20048;-72
2021/01/22 03:28:43;;;;;;;1.08;0.45;;;15.70;50.60;;;;;;2098048;28;20106;-73
2021/01/22 03:29:46;;;;;;;1.23;0.50;;;16.00;64.50;;;;;;2099035;28;20056;-72
2021/01/22 03:30:47;;;;;;;2.15;0.40;;;16.30;63.40;;;;;;2099114;28;20053;-73
2021/01/22 03:31:49;;;;;;;1.13;0.45;;;16.40;62.20;;;;;;2099089;28;20055;-72
2021/01/22 03:32:51;;;;;;;1.08;0.43;;;16.50;61.30;;;;;;2099318;28;20056;-72
2021/01/22 03:33:53;;;;;;;1.45;0.40;;;16.60;62.00;;;;;;2099609;28;20048;-72
2021/01/22 03:34:54;;;;;;;0.70;0.50;;;16.60;59.00;;;;;;2100579;28;20488;-73
2021/01/22 03:35:56;;;;;;;1.38;0.50;;;16.60;61.10;;;;;;2100315;28;20508;-72
2021/01/22 03:36:59;;;;;;;1.55;0.47;;;16.80;60.30;;;;;;2099997;28;20045;-73
2021/01/22 03:38:00;;;;;;;1.60;0.40;;;16.70;60.00;;;;;;2100019;28;20048;-76
2021/01/22 03:39:02;;;;;;;1.00;0.50;;;16.40;59.60;;;;;;2099570;28;20063;-73
2021/01/22 03:40:05;;;;;;;2.45;0.40;;;16.40;57.50;;;;;;2099154;28;20057;-73
2021/01/22 03:41:07;;;;;;;2.05;0.50;;;16.40;59.60;;;;;;2098628;28;20052;-73
2021/01/22 03:42:09;;;;;;;3.55;0.75;;;16.40;59.10;;;;;;2098600;28;20052;-72
2021/01/22 03:43:11;;;;;;;3.08;0.77;;;15.50;52.20;;;;;;2098466;28;20044;-73
2021/01/22 03:44:13;;;;;;;1.75;0.40;;;14.80;53.20;;;;;;2097811;28;20044;-73
2021/01/22 03:45:17;;;;;;;0.88;0.55;;;14.40;58.40;;;;;;2097837;28;20041;-72
2021/01/22 03:46:18;;;;;;;1.05;0.30;;;14.90;66.10;;;;;;2097407;28;20044;-73
2021/01/22 03:47:20;;;;;;;1.38;0.40;;;15.10;61.20;;;;;;2097553;28;20049;-73
2021/01/22 03:48:23;;;;;;;0.93;0.30;;;14.70;59.90;;;;;;2097367;28;20048;-72
2021/01/22 03:49:24;;;;;;;2.20;0.40;;;14.80;66.10;;;;;;2097523;28;20049;-72
2021/01/22 03:50:26;;;;;;;2.15;0.45;;;15.10;64.20;;;;;;2097397;28;20404;-72
2021/01/22 03:51:29;;;;;;;0.32;0.32;;;15.20;64.00;;;;;;2097458;28;20045;-72
2021/01/22 03:52:30;;;;;;;1.10;0.45;;;15.30;62.00;;;;;;2097367;28;20045;-73
2021/01/22 03:53:32;;;;;;;1.17;0.50;;;15.30;64.70;;;;;;2097531;28;20317;-73
2021/01/22 03:54:34;;;;;;;2.08;0.43;;;15.40;62.50;;;;;;2097431;28;20071;-72
2021/01/22 03:55:37;;;;;;;1.65;0.63;;;15.60;60.30;;;;;;2097814;28;20052;-74
2021/01/22 03:56:38;;;;;;;2.60;0.60;;;15.50;64.40;;;;;;2099077;28;20049;-74
2021/01/22 03:57:40;;;;;;;1.73;0.60;;;15.60;61.30;;;;;;2098787;28;20044;-75
2021/01/22 03:58:42;;;;;;;1.50;0.70;;;15.90;63.40;;;;;;2098279;28;20094;-72
2021/01/22 03:59:43;;;;;;;2.55;0.52;;;15.80;62.20;;;;;;2097532;28;20094;-72
2021/01/22 04:00:46;;;;;;;0.82;0.38;;;16.00;61.00;;;;;;2097311;28;20041;-72
2021/01/22 04:01:47;;;;;;;1.08;0.40;;;16.20;62.20;;;;;;2096523;28;20051;-74
2021/01/22 04:02:49;;;;;;;1.10;0.40;;;16.20;61.70;;;;;;2096654;28;20435;-73
2021/01/22 04:03:51;;;;;;;1.23;0.30;;;16.40;60.70;;;;;;2097490;28;20068;-72
2021/01/22 04:04:53;;;;;;;2.92;0.75;;;16.70;60.90;;;;;;2097260;28;20060;-72
2021/01/22 04:05:56;;;;;;;0.73;0.38;;;16.70;59.20;;;;;;2097355;28;20041;-72
2021/01/22 04:06:57;;;;;;;2.88;1.20;;;16.50;59.00;;;;;;2097398;28;20060;-72
2021/01/22 04:07:59;;;;;;;2.72;0.80;;;15.00;53.70;;;;;;2097297;28;20044;-73
2021/01/22 04:09:00;;;;;;;1.45;0.75;;;14.80;58.80;;;;;;2097436;28;20052;-72
2021/01/22 04:10:03;;;;;;;2.50;0.50;;;14.60;62.00;;;;;;2097344;28;20055;-72
2021/01/22 04:11:05;;;;;;;3.15;0.60;;;14.80;66.50;;;;;;2096589;28;20060;-73
2021/01/22 04:12:07;;;;;;;1.33;0.50;;;15.30;65.50;;;;;;2096725;28;20044;-72
2021/01/22 04:13:08;;;;;;;0.60;0.35;;;15.50;64.80;;;;;;2096478;28;20401;-72
2021/01/22 04:14:10;;;;;;;1.05;0.40;;;15.70;63.80;;;;;;2096721;28;20311;-73
2021/01/22 04:15:13;;;;;;;0.75;0.50;;;15.80;63.30;;;;;;2096596;28;20417;-72
2021/01/22 04:16:16;;;;;;;;;;;15.90;62.40;;;;;;2097241;28;20048;-72
2021/01/22 04:17:17;;;;;;;2.47;0.73;;;15.90;61.90;;;;;;2097283;28;19978;-73
2021/01/22 04:18:19;;;;;;;1.48;0.52;;;16.10;62.10;;;;;;2097507;28;20488;-73
2021/01/22 04:19:21;;;;;;;0.82;0.35;;;16.20;60.70;;;;;;2097256;28;20048;-73
2021/01/22 04:20:23;;;;;;;1.98;0.40;;;16.40;61.40;;;;;;2097279;28;20044;-73
2021/01/22 04:21:24;;;;;;;1.52;0.60;;;16.60;60.60;;;;;;2097297;28;20049;-72
2021/01/22 04:22:26;;;;;;;1.33;0.43;;;16.60;59.60;;;;;;2097295;28;20068;-73
2021/01/22 04:23:28;;;;;;;0.80;0.50;;;16.80;59.90;;;;;;2097248;28;20049;-74
2021/01/22 04:24:29;;;;;;;1.35;0.47;;;16.80;59.30;;;;;;2097395;28;20044;-73
2021/01/22 04:25:31;;;;;;;0.98;0.60;;;16.90;59.30;;;;;;2098520;28;20392;-73
2021/01/22 04:26:32;;;;;;;1.85;0.63;;;17.00;59.00;;;;;;2098908;28;20064;-73
2021/01/22 04:27:34;;;;;;;1.33;0.60;;;17.10;58.60;;;;;;2099820;28;20079;-72
2021/01/22 04:28:36;;;;;;;2.17;0.60;;;17.10;58.50;;;;;;2100583;28;20044;-72
2021/01/22 04:29:38;;;;;;;;;;;17.20;58.40;;;;;;2100984;28;20045;-73
2021/01/22 04:30:39;;;;;;;1.10;0.43;;;17.20;58.20;;;;;;2100497;28;19931;-73
2021/01/22 04:31:42;;;;;;;1.73;0.50;;;17.30;58.10;;;;;;2100327;28;20051;-72
2021/01/22 04:32:44;;;;;;;0.90;0.52;;;17.30;57.80;;;;;;2100623;28;20637;-72
2021/01/22 04:33:46;;;;;;;2.13;0.50;;;17.40;57.80;;;;;;2100552;28;20102;-72
2021/01/22 04:34:47;;;;;;;1.75;0.50;;;17.40;57.60;;;;;;2100509;28;20067;-72
2021/01/22 04:35:49;;;;;;;1.95;0.43;;;17.40;57.50;;;;;;2099915;28;20049;-72
2021/01/22 04:36:51;;;;;;;1.15;0.50;;;17.30;57.10;;;;;;2098036;28;20044;-72
2021/01/22 04:37:52;;;;;;;0.50;0.40;;;17.40;57.40;;;;;;2098263;28;20048;-72
2021/01/22 04:38:54;;;;;;;0.40;0.40;;;17.50;57.50;;;;;;2098795;28;20404;-72
2021/01/22 04:39:55;;;;;;;1.55;0.60;;;17.50;57.20;;;;;;2098774;28;20049;-73
2021/01/22 04:40:58;;;;;;;0.85;0.45;;;17.60;56.90;;;;;;2098988;28;20204;-73
2021/01/22 04:42:01;;;;;;;1.08;0.60;;;17.50;56.60;;;;;;2098757;28;20048;-73
2021/01/22 04:43:02;;;;;;;0.30;0.30;;;17.50;56.80;;;;;;2098872;28;20048;-73
2021/01/22 04:44:05;;;;;;;0.75;0.50;;;17.50;56.90;;;;;;2098826;28;20044;-73
2021/01/22 04:45:08;;;;;;;0.90;0.30;;;17.50;57.00;;;;;;2098932;28;20068;-72
2021/01/22 04:46:10;;;;;;;1.55;0.57;;;17.50;56.80;;;;;;2098749;28;20048;-72
2021/01/22 04:47:14;;;;;;;0.60;0.40;;;17.60;57.10;;;;;;2098792;28;20048;-73
2021/01/22 04:48:16;;;;;;;1.85;0.40;;;17.60;57.00;;;;;;2098831;28;20063;-72
2021/01/22 04:49:20;;;;;;;0.65;0.40;;;17.60;56.80;;;;;;2098843;28;20451;-72
2021/01/22 04:50:21;;;;;;;1.38;0.50;;;17.60;56.60;;;;;;2098697;28;20416;-73
2021/01/22 04:51:24;;;;;;;1.85;0.45;;;17.60;56.10;;;;;;2098445;28;20055;-73
2021/01/22 04:52:27;;;;;;;1.02;0.50;;;17.60;56.70;;;;;;2098191;28;20044;-72
2021/01/22 04:53:33;;;;;;;0.60;0.32;;;17.60;56.60;;;;;;2098825;28;20447;-73
2021/01/22 04:54:38;;;;;;;1.55;0.52;;;17.60;56.60;;;;;;2098873;28;20421;-72
2021/01/22 04:55:44;;;;;;;2.83;0.73;;;17.70;56.60;;;;;;2099042;28;20055;-72
2021/01/22 04:56:49;;;;;;;2.22;0.50;;;17.70;56.50;;;;;;2098922;28;20423;-72
2021/01/22 04:57:51;;;;;;;1.08;0.55;;;17.70;56.50;;;;;;2097399;28;20064;-72
2021/01/22 04:58:56;;;;;;;0.70;0.47;;;17.70;56.20;;;;;;2099019;28;20052;-73
2021/01/22 04:59:59;;;;;;;2.55;0.60;;;17.70;56.00;;;;;;2098875;28;20098;-74
2021/01/22 05:01:03;;;;;;;1.00;0.40;;;17.70;56.30;;;;;;2098992;28;20055;-74
2021/01/22 05:02:05;;;;;;;1.13;0.50;;;17.70;56.00;;;;;;2098714;28;20074;-72
2021/01/22 05:03:10;;;;;;;0.77;0.38;;;17.70;56.70;;;;;;2098545;28;20417;-73
2021/01/22 05:04:13;;;;;;;0.57;0.40;;;17.70;56.30;;;;;;2098699;28;20477;-73
2021/01/22 05:05:14;;;;;;;2.38;0.57;;;17.70;56.40;;;;;;2098671;28;20056;-73
2021/01/22 05:06:16;;;;;;;1.50;0.70;;;17.70;56.30;;;;;;2098862;28;20044;-73
2021/01/22 05:07:21;;;;;;;1.73;0.60;;;17.70;56.20;;;;;;2098569;28;20051;-72
2021/01/22 05:08:23;;;;;;;1.70;0.60;;;17.70;56.20;;;;;;2098683;28;20057;-72
2021/01/22 05:09:25;;;;;;;1.90;0.60;;;17.70;56.20;;;;;;2098583;28;20400;-72
2021/01/22 05:10:26;;;;;;;1.20;0.63;;;17.80;56.10;;;;;;2098600;28;20059;-73
2021/01/22 05:11:28;;;;;;;1.08;0.40;;;17.70;56.10;;;;;;2098525;28;20048;-72
2021/01/22 05:12:33;;;;;;;1.90;0.65;;;17.70;56.20;;;;;;2098743;28;20067;-73
2021/01/22 05:13:36;;;;;;;1.27;0.50;;;17.70;56.10;;;;;;2098584;28;20049;-72
2021/01/22 05:14:38;;;;;;;0.88;0.43;;;17.70;55.70;;;;;;2098750;28;20046;-72
2021/01/22 05:15:39;;;;;;;3.03;0.60;;;17.70;56.00;;;;;;2098478;28;20059;-72
2021/01/22 05:16:41;;;;;;;1.20;0.40;;;17.50;56.00;;;;;;2098634;28;20485;-73
2021/01/22 05:17:53;;;;;;;2.53;0.60;;;17.60;56.60;;;;;;2098431;28;20056;-72
2021/01/22 05:18:55;;;;;;;0.80;0.60;;;17.30;56.10;;;;;;2098513;28;20055;-72
2021/01/22 05:20:05;;;;;;;2.00;0.85;;;17.20;55.80;;;;;;2098413;28;20048;-72
2021/01/22 05:21:08;;;;;;;1.23;0.75;;;16.90;57.60;;;;;;2098661;28;20048;-73
2021/01/22 05:22:13;;;;;;;0.95;0.40;;;17.10;57.90;;;;;;2098622;28;20049;-73
2021/01/22 05:23:15;;;;;;;1.58;0.50;;;17.30;57.60;;;;;;2099110;28;20083;-72
2021/01/22 05:24:21;;;;;;;1.75;0.70;;;17.30;57.60;;;;;;2099179;28;20045;-73
2021/01/22 05:25:22;;;;;;;0.60;0.50;;;17.30;56.70;;;;;;2100005;28;20044;-72
2021/01/22 05:26:24;;;;;;;1.65;0.60;;;17.30;57.00;;;;;;2099450;28;20049;-72
2021/01/22 05:27:26;;;;;;;1.65;0.55;;;17.40;56.90;;;;;;2099500;28;20063;-72
2021/01/22 05:28:33;;;;;;;1.80;0.90;;;17.40;56.90;;;;;;2100119;28;20049;-72